Stairtown, Texas
Current Conditions -  °F | °C
As of 8:55 AM on Friday 19 Dec 2014 (Local Time) from KT20 Reporting Station
Overcast Overcast  
Wind Chill: 51°   Ceiling: 800
Heat Index: 51°   Visibility: 10mi
Dew Point: 50°   Wind: 14mph
Humidity: 95%   Direction: 10°N
Pressure: 30.09"   Gusts: 20mph
Location:  29.6952°N, 97.6509°W
Report Text: KT20 191455Z AUTO 01012G17KT 10SM OVC008 11/10 A3009 RMK AO2 P0001 60059 T01070100
Loading
Personal Weather Stations






























Interactive Weather Map New forecast layout! Learn more

10-Day Weather Forecast

Advertisements
Track Severe Weather on mobile